createdAt,value
2019-05-19T00:01:33.147Z,11.37
2019-05-19T00:03:59.762Z,11.47
2019-05-19T00:06:26.394Z,11.57
2019-05-19T00:08:53.021Z,12.43
2019-05-19T00:11:19.650Z,13.50
2019-05-19T00:13:46.262Z,12.77
2019-05-19T00:16:12.894Z,12.33
2019-05-19T00:18:39.506Z,12.93
2019-05-19T00:21:06.134Z,13.13
2019-05-19T00:23:32.762Z,12.87
2019-05-19T00:25:59.391Z,11.87
2019-05-19T00:28:26.032Z,12.80
2019-05-19T00:30:52.766Z,12.60
2019-05-19T00:33:19.386Z,16.20
2019-05-19T00:35:46.088Z,12.07
2019-05-19T00:38:12.749Z,13.03
2019-05-19T00:40:39.356Z,12.40
2019-05-19T00:43:05.963Z,12.83
2019-05-19T00:45:32.678Z,14.97
2019-05-19T00:47:59.491Z,13.93
2019-05-19T00:50:27.140Z,12.40
2019-05-19T00:52:53.862Z,11.70
2019-05-19T00:55:20.462Z,13.10
2019-05-19T00:57:47.983Z,12.57
2019-05-19T01:00:14.794Z,13.87
2019-05-19T01:02:41.440Z,13.50
2019-05-19T01:05:08.562Z,12.67
2019-05-19T01:07:35.306Z,14.03
2019-05-19T01:10:03.342Z,13.70
2019-05-19T01:12:30.050Z,16.37
2019-05-19T01:14:56.666Z,15.13
2019-05-19T01:17:23.285Z,12.83
2019-05-19T01:19:56.002Z,12.53
2019-05-19T01:22:18.542Z,13.03
2019-05-19T01:24:45.162Z,12.03
2019-05-19T01:27:13.587Z,12.80
2019-05-19T01:29:40.223Z,12.43
2019-05-19T01:32:07.115Z,11.93
2019-05-19T01:34:33.718Z,12.13
2019-05-19T01:37:00.326Z,12.23
2019-05-19T01:39:27.069Z,11.57
2019-05-19T01:41:53.846Z,12.47
2019-05-19T01:44:20.554Z,12.57
2019-05-19T01:46:47.147Z,12.43
2019-05-19T01:49:13.866Z,12.30
2019-05-19T01:51:58.863Z,12.10
2019-05-19T01:54:25.458Z,11.60
2019-05-19T01:56:52.042Z,11.83
2019-05-19T01:59:18.634Z,12.33
2019-05-19T02:01:45.226Z,12.60
2019-05-19T02:04:11.832Z,13.03
2019-05-19T02:06:38.424Z,13.20
2019-05-19T02:09:05.706Z,12.77
2019-05-19T02:11:32.340Z,12.33
2019-05-19T02:13:59.062Z,12.47
2019-05-19T02:16:25.669Z,12.13
2019-05-19T02:18:52.246Z,12.63
2019-05-19T02:21:18.853Z,13.27
2019-05-19T02:23:45.427Z,13.07
2019-05-19T02:26:12.027Z,13.13
2019-05-19T02:28:57.116Z,13.00
2019-05-19T02:31:23.720Z,13.60
2019-05-19T02:33:50.299Z,13.23
2019-05-19T02:36:19.841Z,14.27
2019-05-19T02:38:46.421Z,14.23
2019-05-19T02:41:13.710Z,14.03
2019-05-19T02:43:40.630Z,14.67
2019-05-19T02:46:07.819Z,14.93
2019-05-19T02:48:34.847Z,14.87
2019-05-19T02:51:02.351Z,14.67
2019-05-19T02:53:30.420Z,14.83
2019-05-19T02:55:57.527Z,14.70
2019-05-19T02:58:24.432Z,15.10
2019-05-19T03:00:51.012Z,15.00
2019-05-19T03:03:17.715Z,15.00
2019-05-19T03:05:44.301Z,15.53
2019-05-19T03:08:10.916Z,16.07
2019-05-19T03:10:37.505Z,15.60
2019-05-19T03:13:04.098Z,15.57
2019-05-19T03:15:30.791Z,15.47
2019-05-19T03:17:57.423Z,15.87
2019-05-19T03:20:25.095Z,17.10
2019-05-19T03:22:51.814Z,17.67
2019-05-19T03:25:18.424Z,17.57
2019-05-19T03:27:45.046Z,17.83
2019-05-19T03:30:30.572Z,19.20
2019-05-19T03:32:59.090Z,18.93
2019-05-19T03:35:25.775Z,20.80
2019-05-19T03:37:52.388Z,19.77
2019-05-19T03:40:19.097Z,20.03
2019-05-19T03:42:46.600Z,19.77
2019-05-19T03:45:13.212Z,20.70
2019-05-19T03:47:39.816Z,19.60
2019-05-19T03:50:06.451Z,20.50
2019-05-19T03:52:33.065Z,21.27
2019-05-19T03:54:59.701Z,24.67
2019-05-19T03:57:26.310Z,23.63
2019-05-19T03:59:52.923Z,22.90
2019-05-19T04:02:19.654Z,22.50
2019-05-19T04:04:46.333Z,22.27
2019-05-19T04:07:12.974Z,21.70
2019-05-19T04:09:39.587Z,23.10
2019-05-19T04:12:06.328Z,22.63
2019-05-19T04:14:32.938Z,22.23
2019-05-19T04:16:59.575Z,24.70
2019-05-19T04:19:26.190Z,24.07
2019-05-19T04:21:53.388Z,23.03
2019-05-19T04:24:19.998Z,23.67
2019-05-19T04:26:46.636Z,25.23
2019-05-19T04:29:13.252Z,26.07
2019-05-19T04:31:39.902Z,25.47
2019-05-19T04:34:06.520Z,24.57
2019-05-19T04:36:33.156Z,23.90
2019-05-19T04:38:59.804Z,24.17
2019-05-19T04:41:26.419Z,26.13
2019-05-19T04:43:53.087Z,26.50
2019-05-19T04:46:19.699Z,26.27
2019-05-19T04:48:46.336Z,29.00
2019-05-19T04:51:12.999Z,25.87
2019-05-19T04:53:39.906Z,23.67
2019-05-19T04:56:06.530Z,26.77
2019-05-19T04:58:33.161Z,25.13
2019-05-19T05:00:59.779Z,26.13
2019-05-19T05:03:26.406Z,32.07
2019-05-19T05:05:53.454Z,31.53
2019-05-19T05:08:29.497Z,27.60
2019-05-19T05:10:48.939Z,28.77
2019-05-19T05:13:15.551Z,29.33
2019-05-19T05:15:42.192Z,33.00
2019-05-19T05:18:08.998Z,29.93
2019-05-19T05:20:35.634Z,28.63
2019-05-19T05:23:02.258Z,30.33
2019-05-19T05:25:29.011Z,30.27
2019-05-19T05:27:55.718Z,33.27
2019-05-19T05:30:22.355Z,30.20
2019-05-19T05:32:48.971Z,30.03
2019-05-19T05:35:15.622Z,29.20
2019-05-19T05:37:42.251Z,30.67
2019-05-19T05:40:10.254Z,30.97
2019-05-19T05:42:36.982Z,30.53
2019-05-19T05:45:05.326Z,30.40
2019-05-19T05:47:31.974Z,53.53
2019-05-19T05:49:58.589Z,34.73
2019-05-19T05:52:37.523Z,38.83
2019-05-19T05:54:54.411Z,29.87
2019-05-19T05:57:21.090Z,32.60
2019-05-19T05:59:47.706Z,29.53
2019-05-19T06:02:14.878Z,33.67
2019-05-19T06:04:41.491Z,28.90
2019-05-19T06:07:08.127Z,30.43
2019-05-19T06:09:34.962Z,29.73
2019-05-19T06:12:01.590Z,29.63
2019-05-19T06:14:28.227Z,30.90
2019-05-19T06:16:54.846Z,28.33
2019-05-19T06:19:21.479Z,27.90
2019-05-19T06:21:48.098Z,29.77
2019-05-19T06:24:14.798Z,31.50
2019-05-19T06:26:41.484Z,29.33
2019-05-19T06:29:08.119Z,32.50
2019-05-19T06:31:34.737Z,29.70
2019-05-19T06:34:01.687Z,29.63
2019-05-19T06:36:28.311Z,29.77
2019-05-19T06:38:54.953Z,29.33
2019-05-19T06:41:21.683Z,58.93
2019-05-19T06:43:48.350Z,52.27
2019-05-19T06:46:15.095Z,30.60
2019-05-19T06:48:41.793Z,29.00
2019-05-19T06:51:08.433Z,30.27
2019-05-19T06:53:35.175Z,31.03
2019-05-19T06:56:01.813Z,28.77
2019-05-19T06:58:28.437Z,28.53
2019-05-19T07:00:59.223Z,28.53
2019-05-19T07:03:26.140Z,31.00
2019-05-19T07:05:52.791Z,30.57
2019-05-19T07:08:19.516Z,30.60
2019-05-19T07:10:46.150Z,30.17
2019-05-19T07:13:13.069Z,30.70
2019-05-19T07:15:39.705Z,28.37
2019-05-19T07:18:06.325Z,29.63
2019-05-19T07:20:33.014Z,30.83
2019-05-19T07:22:59.671Z,30.67
2019-05-19T07:25:26.387Z,31.60
2019-05-19T07:27:53.046Z,32.23
2019-05-19T07:30:20.183Z,31.43
2019-05-19T07:32:46.926Z,30.67
2019-05-19T07:35:13.689Z,32.87
2019-05-19T07:37:40.402Z,31.97
2019-05-19T07:40:07.315Z,29.87
2019-05-19T07:42:33.954Z,34.40
2019-05-19T07:45:00.909Z,32.07
2019-05-19T07:47:27.530Z,31.60
2019-05-19T07:49:54.151Z,32.13
2019-05-19T07:52:20.784Z,32.83
2019-05-19T07:54:47.410Z,32.97
2019-05-19T07:57:14.027Z,32.07
2019-05-19T07:59:40.654Z,33.37
2019-05-19T08:02:07.387Z,33.50
2019-05-19T08:04:34.031Z,33.60
2019-05-19T08:07:00.786Z,31.90
2019-05-19T08:09:27.423Z,32.80
2019-05-19T08:11:54.039Z,34.07
2019-05-19T08:14:20.674Z,32.83
2019-05-19T08:16:47.311Z,33.37
2019-05-19T08:19:13.952Z,34.80
2019-05-19T08:21:40.666Z,35.23
2019-05-19T08:24:07.499Z,34.77
2019-05-19T08:26:34.108Z,33.93
2019-05-19T08:29:00.727Z,32.40
2019-05-19T08:31:27.441Z,35.43
2019-05-19T08:33:54.210Z,32.87
2019-05-19T08:36:22.482Z,32.03
2019-05-19T08:38:49.192Z,32.03
2019-05-19T08:41:15.853Z,31.87
2019-05-19T08:43:42.517Z,33.83
2019-05-19T08:46:09.151Z,37.03
2019-05-19T08:48:35.790Z,35.63
2019-05-19T08:51:02.525Z,34.10
2019-05-19T08:53:29.143Z,36.43
2019-05-19T08:55:55.797Z,33.70
2019-05-19T08:58:22.359Z,33.50
2019-05-19T09:00:48.938Z,34.20
2019-05-19T09:03:15.504Z,35.77
2019-05-19T09:05:42.134Z,34.70
2019-05-19T09:08:08.763Z,32.10
2019-05-19T09:10:35.441Z,33.87
2019-05-19T09:13:02.167Z,33.67
2019-05-19T09:15:29.151Z,31.93
2019-05-19T09:17:56.894Z,33.33
2019-05-19T09:20:23.585Z,32.03
2019-05-19T09:22:50.365Z,33.97
2019-05-19T09:25:16.980Z,33.67
2019-05-19T09:27:43.614Z,32.20
2019-05-19T09:30:10.379Z,38.40
2019-05-19T09:32:36.951Z,32.37
2019-05-19T09:35:05.224Z,32.90
2019-05-19T09:37:31.864Z,33.37
2019-05-19T09:39:58.435Z,33.03
2019-05-19T09:42:25.016Z,33.47
2019-05-19T09:44:51.604Z,32.43
2019-05-19T09:47:18.187Z,33.13
2019-05-19T09:49:44.751Z,32.70
2019-05-19T09:52:11.411Z,32.07
2019-05-19T09:54:45.206Z,33.07
2019-05-19T09:57:06.505Z,29.80
2019-05-19T09:59:33.129Z,30.83
2019-05-19T10:01:59.694Z,31.90
2019-05-19T10:04:26.383Z,29.13
2019-05-19T10:06:53.042Z,27.10
2019-05-19T10:09:23.678Z,29.90
2019-05-19T10:12:01.298Z,29.33
2019-05-19T10:14:28.479Z,163.50
2019-05-19T10:16:55.099Z,34.93
2019-05-19T10:19:21.834Z,31.57
2019-05-19T10:21:48.405Z,30.30
2019-05-19T10:24:14.986Z,30.93
2019-05-19T10:26:41.578Z,27.93
2019-05-19T10:29:08.227Z,29.73
2019-05-19T10:31:35.950Z,31.07
2019-05-19T10:34:02.569Z,30.03
2019-05-19T10:36:29.211Z,26.90
2019-05-19T10:38:55.870Z,28.40
2019-05-19T10:41:22.681Z,27.93
2019-05-19T10:43:51.294Z,26.43
2019-05-19T10:46:17.975Z,23.20
2019-05-19T10:48:44.577Z,29.77
2019-05-19T10:51:14.043Z,26.63
2019-05-19T10:53:40.728Z,26.53
2019-05-19T10:56:07.355Z,25.17
2019-05-19T10:58:34.003Z,24.97
2019-05-19T11:01:00.774Z,25.47
2019-05-19T11:03:27.395Z,26.60
2019-05-19T11:05:55.167Z,24.83
2019-05-19T11:08:22.022Z,23.17
2019-05-19T11:10:48.657Z,22.67
2019-05-19T11:13:15.266Z,21.83
2019-05-19T11:15:41.906Z,22.80
2019-05-19T11:18:08.535Z,23.40
2019-05-19T11:20:35.244Z,22.73
2019-05-19T11:23:01.953Z,23.10
2019-05-19T11:25:33.989Z,20.10
2019-05-19T11:27:57.128Z,24.73
2019-05-19T11:30:23.776Z,25.13
2019-05-19T11:32:50.531Z,20.37
2019-05-19T11:35:17.303Z,20.43
2019-05-19T11:37:43.917Z,20.00
2019-05-19T11:40:10.771Z,22.03
2019-05-19T11:42:37.382Z,21.97
2019-05-19T11:45:05.624Z,23.63
2019-05-19T11:47:32.259Z,20.77
2019-05-19T11:49:58.895Z,19.23
2019-05-19T11:52:25.550Z,22.73
2019-05-19T11:54:52.278Z,21.00
2019-05-19T11:57:18.912Z,20.67
2019-05-19T11:59:45.526Z,22.60
2019-05-19T12:02:12.150Z,22.83
2019-05-19T12:04:38.863Z,20.90
2019-05-19T12:07:05.510Z,22.17
2019-05-19T12:09:32.194Z,21.63
2019-05-19T12:11:58.868Z,20.00
2019-05-19T12:14:25.570Z,18.93
2019-05-19T12:16:52.250Z,23.50
2019-05-19T12:19:19.458Z,18.40
2019-05-19T12:21:46.065Z,18.47
2019-05-19T12:24:12.674Z,20.20
2019-05-19T12:26:39.295Z,21.27
2019-05-19T12:29:08.850Z,17.43
2019-05-19T12:31:35.570Z,17.00
2019-05-19T12:34:02.191Z,19.10
2019-05-19T12:36:28.843Z,17.97
2019-05-19T12:38:55.473Z,18.13
2019-05-19T12:41:22.092Z,21.33
2019-05-19T12:43:49.005Z,20.50
2019-05-19T12:46:16.818Z,18.73
2019-05-19T12:48:43.695Z,18.43
2019-05-19T12:51:10.298Z,17.20
2019-05-19T12:53:36.947Z,19.20
2019-05-19T12:56:03.537Z,20.20
2019-05-19T12:58:31.302Z,16.07
2019-05-19T13:00:58.006Z,18.03
2019-05-19T13:03:24.573Z,17.30
2019-05-19T13:05:51.143Z,18.40
2019-05-19T13:08:18.791Z,19.40
2019-05-19T13:10:45.350Z,21.80
2019-05-19T13:13:11.998Z,20.10
2019-05-19T13:15:38.647Z,21.50
2019-05-19T13:18:05.355Z,21.97
2019-05-19T13:20:32.265Z,23.43
2019-05-19T13:22:59.010Z,20.87
2019-05-19T13:25:25.725Z,22.77
2019-05-19T13:27:52.423Z,20.27
2019-05-19T13:30:19.026Z,22.50
2019-05-19T13:32:45.647Z,21.00
2019-05-19T13:35:12.379Z,20.50
2019-05-19T13:37:39.045Z,16.43
2019-05-19T13:40:05.870Z,13.23
2019-05-19T13:42:32.824Z,14.63
2019-05-19T13:44:59.802Z,13.60
2019-05-19T13:47:26.446Z,14.77
2019-05-19T13:49:53.080Z,16.57
2019-05-19T13:52:19.686Z,13.50
2019-05-19T13:54:46.298Z,14.57
2019-05-19T13:57:13.006Z,12.53
2019-05-19T13:59:39.738Z,14.83
2019-05-19T14:02:06.376Z,13.83
2019-05-19T14:04:34.286Z,13.77
2019-05-19T14:07:01.011Z,14.53
2019-05-19T14:09:27.635Z,16.37
2019-05-19T14:11:54.346Z,16.00
2019-05-19T14:14:21.071Z,14.37
2019-05-19T14:16:47.700Z,15.17
2019-05-19T14:19:14.321Z,12.43
2019-05-19T14:21:41.491Z,7.60
2019-05-19T14:24:08.154Z,11.30
2019-05-19T14:26:35.052Z,10.67
2019-05-19T14:29:01.712Z,5.57
2019-05-19T14:31:28.344Z,3.67
2019-05-19T14:33:55.254Z,3.17
2019-05-19T14:36:21.870Z,3.03
2019-05-19T14:39:05.066Z,4.13
2019-05-19T14:41:34.138Z,2.63
2019-05-19T14:44:01.194Z,2.37
2019-05-19T14:46:27.806Z,2.33
2019-05-19T14:48:54.429Z,2.90
2019-05-19T14:51:21.134Z,2.37
2019-05-19T14:53:47.820Z,2.27
2019-05-19T14:56:15.823Z,2.20
2019-05-19T14:58:43.242Z,2.60
2019-05-19T15:01:09.850Z,2.50
2019-05-19T15:03:36.598Z,2.90
2019-05-19T15:06:03.290Z,2.70
2019-05-19T15:08:29.926Z,2.93
2019-05-19T15:10:56.543Z,2.87
2019-05-19T15:13:23.182Z,3.90
2019-05-19T15:15:50.385Z,2.87
2019-05-19T15:18:17.075Z,2.77
2019-05-19T15:20:43.703Z,2.90
2019-05-19T15:23:10.366Z,2.47
2019-05-19T15:25:37.751Z,2.70
2019-05-19T15:28:05.425Z,3.23
2019-05-19T15:30:32.424Z,3.07
2019-05-19T15:32:59.132Z,3.50
2019-05-19T15:35:25.786Z,3.30
2019-05-19T15:37:52.394Z,3.00
2019-05-19T15:40:19.093Z,4.13
2019-05-19T15:42:45.810Z,3.60
2019-05-19T15:45:14.014Z,3.00
2019-05-19T15:47:40.630Z,3.03
2019-05-19T15:50:07.807Z,56.37
2019-05-19T15:52:34.426Z,4.67
2019-05-19T15:55:01.039Z,3.03
2019-05-19T15:57:28.704Z,4.40
2019-05-19T15:59:55.594Z,2.73
2019-05-19T16:02:22.226Z,2.80
2019-05-19T16:04:48.853Z,3.30
2019-05-19T16:07:15.508Z,5.00
2019-05-19T16:09:42.329Z,7.60
2019-05-19T16:12:09.087Z,3.43
2019-05-19T16:14:35.751Z,2.43
2019-05-19T16:17:02.387Z,2.50
2019-05-19T16:19:28.992Z,4.70
2019-05-19T16:21:55.639Z,5.90
2019-05-19T16:24:22.283Z,2.73
2019-05-19T16:26:48.898Z,2.30
2019-05-19T16:29:15.644Z,2.90
2019-05-19T16:31:42.305Z,2.93
2019-05-19T16:34:08.982Z,2.67
2019-05-19T16:36:35.595Z,3.33
2019-05-19T16:39:04.198Z,3.00
2019-05-19T16:41:30.818Z,3.60
2019-05-19T16:43:57.462Z,3.10
2019-05-19T16:46:27.211Z,3.23
2019-05-19T16:48:53.899Z,2.93
2019-05-19T16:51:20.595Z,3.23
2019-05-19T16:53:49.122Z,3.63
2019-05-19T16:56:15.739Z,3.67
2019-05-19T16:58:45.397Z,3.50
2019-05-19T17:01:11.006Z,5.83
2019-05-19T17:03:37.667Z,3.60
2019-05-19T17:06:04.410Z,3.67
2019-05-19T17:08:31.022Z,3.57
2019-05-19T17:10:57.663Z,3.33
2019-05-19T17:13:24.279Z,3.00
2019-05-19T17:15:50.906Z,3.17
2019-05-19T17:18:17.578Z,3.40
2019-05-19T17:20:44.223Z,3.70
2019-05-19T17:23:10.846Z,3.70
2019-05-19T17:25:37.474Z,3.60
2019-05-19T17:28:04.151Z,3.57
2019-05-19T17:30:30.767Z,3.20
2019-05-19T17:32:57.400Z,3.00
2019-05-19T17:35:24.088Z,4.23
2019-05-19T17:37:50.763Z,3.77
2019-05-19T17:40:23.109Z,3.17
2019-05-19T17:42:49.785Z,2.90
2019-05-19T17:45:17.079Z,3.83
2019-05-19T17:47:43.737Z,2.90
2019-05-19T17:50:12.250Z,2.80
2019-05-19T17:52:38.886Z,3.20
2019-05-19T17:55:06.403Z,5.17
2019-05-19T17:57:34.044Z,3.00
2019-05-19T18:00:00.859Z,3.00
2019-05-19T18:02:27.497Z,3.37
2019-05-19T18:04:54.647Z,3.70
2019-05-19T18:07:21.287Z,3.30
2019-05-19T18:09:47.906Z,3.33
2019-05-19T18:12:14.529Z,3.17
2019-05-19T18:14:41.170Z,3.43
2019-05-19T18:17:07.779Z,3.10
2019-05-19T18:19:34.548Z,3.00
2019-05-19T18:22:01.242Z,3.20
2019-05-19T18:24:27.878Z,3.37
2019-05-19T18:26:54.489Z,3.20
2019-05-19T18:29:31.103Z,17.20
2019-05-19T18:31:49.746Z,3.40
2019-05-19T18:34:16.338Z,3.47
2019-05-19T18:36:42.890Z,3.23
2019-05-19T18:39:09.475Z,2.90
2019-05-19T18:41:36.071Z,3.10
2019-05-19T18:44:02.761Z,3.30
2019-05-19T18:46:29.376Z,3.30
2019-05-19T18:48:56.034Z,3.93
2019-05-19T18:51:22.656Z,4.00
2019-05-19T18:53:49.391Z,5.77
2019-05-19T18:56:16.035Z,4.70
2019-05-19T18:58:42.850Z,4.53
2019-05-19T19:01:09.462Z,4.47
2019-05-19T19:03:36.248Z,4.37
2019-05-19T19:06:02.967Z,4.47
2019-05-19T19:08:29.582Z,4.30
2019-05-19T19:10:56.214Z,5.13
2019-05-19T19:13:22.886Z,4.83
2019-05-19T19:15:49.527Z,5.13
2019-05-19T19:18:16.148Z,5.50
2019-05-19T19:20:42.792Z,6.03
2019-05-19T19:23:09.454Z,5.90
2019-05-19T19:25:36.173Z,10.30
2019-05-19T19:28:02.886Z,8.80
2019-05-19T19:30:29.622Z,10.17
2019-05-19T19:32:56.491Z,11.50
2019-05-19T19:35:24.568Z,11.23
2019-05-19T19:37:51.437Z,10.33
2019-05-19T19:40:19.998Z,11.00
2019-05-19T19:42:46.690Z,10.83
2019-05-19T19:45:13.426Z,11.20
2019-05-19T19:47:40.062Z,12.53
2019-05-19T19:50:06.778Z,13.47
2019-05-19T19:52:33.411Z,10.33
2019-05-19T19:55:00.031Z,11.17
2019-05-19T19:57:26.671Z,12.23
2019-05-19T19:59:53.282Z,11.37
2019-05-19T20:02:19.918Z,10.50
2019-05-19T20:04:46.531Z,9.23
2019-05-19T20:07:13.166Z,9.40
2019-05-19T20:09:39.802Z,9.00
2019-05-19T20:12:06.703Z,9.20
2019-05-19T20:14:33.335Z,9.40
2019-05-19T20:16:59.961Z,8.97
2019-05-19T20:19:26.630Z,9.77
2019-05-19T20:21:53.322Z,9.73
2019-05-19T20:24:19.980Z,9.90
2019-05-19T20:26:46.676Z,20.57
2019-05-19T20:29:13.315Z,24.60
2019-05-19T20:31:39.918Z,10.87
2019-05-19T20:34:06.556Z,11.90
2019-05-19T20:36:33.201Z,20.93
2019-05-19T20:38:59.927Z,12.13
2019-05-19T20:41:26.541Z,11.33
2019-05-19T20:43:53.236Z,11.20
2019-05-19T20:46:19.853Z,11.20
2019-05-19T20:48:46.467Z,10.90
2019-05-19T20:51:13.103Z,11.60
2019-05-19T20:53:39.714Z,10.67
2019-05-19T20:56:06.367Z,10.07
2019-05-19T20:58:33.386Z,11.00
2019-05-19T21:01:00.025Z,10.03
2019-05-19T21:03:26.640Z,10.80
2019-05-19T21:05:53.270Z,10.63
2019-05-19T21:08:19.891Z,10.70
2019-05-19T21:10:46.523Z,10.57
2019-05-19T21:13:13.245Z,10.97
2019-05-19T21:15:39.958Z,9.97
2019-05-19T21:18:06.562Z,9.57
2019-05-19T21:20:33.173Z,10.30
2019-05-19T21:22:59.833Z,10.20
2019-05-19T21:25:26.447Z,9.70
2019-05-19T21:27:53.078Z,10.00
2019-05-19T21:30:19.687Z,9.73
2019-05-19T21:32:46.332Z,9.50
2019-05-19T21:35:12.938Z,10.00
2019-05-19T21:37:39.603Z,10.13
2019-05-19T21:40:06.708Z,10.23
2019-05-19T21:42:33.276Z,10.03
2019-05-19T21:44:59.834Z,10.87
2019-05-19T21:47:26.419Z,10.47
2019-05-19T21:49:53.056Z,10.63
2019-05-19T21:52:19.737Z,10.10
2019-05-19T21:54:46.317Z,10.23
2019-05-19T21:57:12.995Z,11.80
2019-05-19T21:59:39.579Z,11.80
2019-05-19T22:02:06.446Z,11.27
2019-05-19T22:04:33.066Z,11.17
2019-05-19T22:07:04.150Z,12.07
2019-05-19T22:09:30.753Z,12.17
2019-05-19T22:11:57.682Z,11.90
2019-05-19T22:14:24.924Z,13.03
2019-05-19T22:16:51.483Z,13.03
2019-05-19T22:19:18.858Z,15.03
2019-05-19T22:21:45.424Z,14.80
2019-05-19T22:24:12.004Z,16.03
2019-05-19T22:26:38.554Z,16.63
2019-05-19T22:29:05.135Z,16.30
2019-05-19T22:31:36.919Z,16.37
2019-05-19T22:34:00.262Z,18.03
2019-05-19T22:36:26.860Z,17.60
2019-05-19T22:38:53.427Z,18.50
2019-05-19T22:41:20.030Z,19.33
2019-05-19T22:43:46.590Z,18.67
2019-05-19T22:46:13.183Z,19.63
2019-05-19T22:48:39.747Z,19.57
2019-05-19T22:51:09.439Z,18.77
2019-05-19T22:53:36.011Z,20.13
2019-05-19T22:56:02.729Z,20.67
2019-05-19T22:58:32.008Z,22.00
2019-05-19T23:00:58.682Z,22.70
2019-05-19T23:03:25.242Z,23.03
2019-05-19T23:05:51.827Z,24.23
2019-05-19T23:08:18.387Z,23.17
2019-05-19T23:10:44.966Z,24.93
2019-05-19T23:13:11.532Z,24.37
2019-05-19T23:15:38.111Z,28.73
2019-05-19T23:18:04.680Z,25.93
2019-05-19T23:20:31.355Z,27.03
2019-05-19T23:22:58.123Z,27.27
2019-05-19T23:25:24.711Z,29.50
2019-05-19T23:27:51.514Z,29.20
2019-05-19T23:30:18.298Z,30.13
2019-05-19T23:32:45.141Z,31.77
2019-05-19T23:35:11.827Z,34.47
2019-05-19T23:37:38.391Z,33.37
2019-05-19T23:40:05.394Z,36.73
2019-05-19T23:42:31.952Z,35.63
2019-05-19T23:44:58.528Z,39.13
2019-05-19T23:47:25.103Z,41.03
2019-05-19T23:49:52.731Z,40.13
2019-05-19T23:52:19.299Z,39.93
2019-05-19T23:54:46.219Z,41.53
2019-05-19T23:57:12.806Z,42.43
2019-05-19T23:59:39.362Z,41.97
